Kula, Hawaii
Current Conditions -  °F | °C
As of 10:54 PM on Monday 20 Oct 2014 (Local Time) from PHOG Reporting Station
Few Clouds Few Clouds  
Wind Chill: 74°   Ceiling: Unl
Heat Index: 74°   Visibility: 10mi
Dew Point: 69°   Wind: 5mph
Humidity: 85%   Direction: 120°ESE
Pressure: 30.02"   Gusts: NA
Location:  20.77°N, 156.33°W
Report Text: PHOG 210854Z 12004KT 10SM FEW035 23/21 A3002 RMK AO2 SLP169 T02330206 51012
Loading
Personal Weather Stations






























Interactive Weather Map
Tropical Storm Tracking
New forecast layout! Learn more

10-Day Weather Forecast

Advertisements
Track Severe Weather on mobile